Time;durP1;ratioP1;P1;durP2;ratioP2;P2;SDS_P1;SDS_P2;PMS_P1;PMS_P2;Temp;Humidity;BMP_temperature;BMP_pressure;BME280_temperature;BME280_humidity;BME280_pressure;Samples;Min_cycle;Max_cycle;Signal;HPM_P1;HPM_P2
2022/08/17 00:00:47;;;;;;;6.80;6.17;;;24.90;1.00;;;;;;5091909;28;20513;-56
2022/08/17 00:03:24;;;;;;;6.73;6.10;;;24.80;1.00;;;;;;5092082;28;20528;-54
2022/08/17 00:05:55;;;;;;;9.70;6.53;;;24.70;1.00;;;;;;5091557;28;20444;-56
2022/08/17 00:08:25;;;;;;;6.70;5.90;;;24.70;1.00;;;;;;5090355;28;21107;-56
2022/08/17 00:10:52;;;;;;;7.10;6.40;;;24.70;1.00;;;;;;5089686;28;20451;-55
2022/08/17 00:13:24;;;;;;;8.40;6.90;;;24.70;1.00;;;;;;5091741;28;20433;-55
2022/08/17 00:15:50;;;;;;;7.70;5.67;;;24.60;1.00;;;;;;5088967;28;20668;-55
2022/08/17 00:18:16;;;;;;;6.50;6.03;;;24.60;1.00;;;;;;5090865;28;20457;-55
2022/08/17 00:20:41;;;;;;;6.87;5.67;;;24.50;1.00;;;;;;5091032;28;20451;-55
2022/08/17 00:23:10;;;;;;;6.30;5.67;;;24.40;1.00;;;;;;5092466;28;20210;-54
2022/08/17 00:25:35;;;;;;;6.23;5.70;;;24.40;1.00;;;;;;5089730;28;20182;-55
2022/08/17 00:28:01;;;;;;;9.43;6.70;;;24.30;1.00;;;;;;5090659;28;20416;-55
2022/08/17 00:30:27;;;;;;;7.20;6.60;;;24.30;1.00;;;;;;5091309;28;20569;-55
2022/08/17 00:32:53;;;;;;;7.50;6.07;;;24.30;1.00;;;;;;5090891;28;20195;-56
2022/08/17 00:35:22;;;;;;;9.67;6.40;;;24.30;1.00;;;;;;5090173;28;20516;-55
2022/08/17 00:37:48;;;;;;;6.63;6.07;;;24.20;1.00;;;;;;5084564;28;20709;-56
2022/08/17 00:40:15;;;;;;;7.70;6.90;;;24.20;1.00;;;;;;5083285;28;20913;-54
2022/08/17 00:42:43;;;;;;;7.80;6.90;;;24.20;1.00;;;;;;5088242;28;20423;-56
2022/08/17 00:45:12;;;;;;;6.97;6.23;;;24.30;1.00;;;;;;5091246;28;20809;-55
2022/08/17 00:47:38;;;;;;;7.60;6.50;;;24.10;1.00;;;;;;5089749;28;20441;-56
2022/08/17 00:50:08;;;;;;;6.57;5.97;;;24.10;1.00;;;;;;5091977;28;20440;-55
2022/08/17 00:52:37;;;;;;;7.57;6.87;;;24.10;1.00;;;;;;5089699;28;20519;-55
2022/08/17 00:55:05;;;;;;;7.33;6.63;;;24.10;1.00;;;;;;5091828;28;20437;-55
2022/08/17 00:57:36;;;;;;;7.80;6.93;;;24.10;1.00;;;;;;5090214;28;20464;-54
2022/08/17 01:00:25;;;;;;;9.67;6.80;;;24.10;1.00;;;;;;5091987;28;20468;-54
2022/08/17 01:02:56;;;;;;;6.73;6.13;;;24.10;1.00;;;;;;5085128;28;20949;-55
2022/08/17 01:05:25;;;;;;;7.73;6.93;;;24.00;1.00;;;;;;5089685;28;20447;-55
2022/08/17 01:07:52;;;;;;;7.57;6.87;;;24.00;1.00;;;;;;5073530;28;20771;-55
2022/08/17 01:10:24;;;;;;;7.50;6.50;;;23.90;1.00;;;;;;5090139;28;20628;-56
2022/08/17 01:12:50;;;;;;;7.77;7.07;;;23.90;1.00;;;;;;5090560;28;20468;-55
2022/08/17 01:15:16;;;;;;;7.50;6.80;;;23.90;1.00;;;;;;5086987;28;20794;-54
2022/08/17 01:17:44;;;;;;;7.00;6.40;;;23.90;1.00;;;;;;5090758;28;20206;-55
2022/08/17 01:20:11;;;;;;;6.97;6.37;;;23.90;1.00;;;;;;5090200;28;20186;-55
2022/08/17 01:22:38;;;;;;;8.63;6.77;;;23.90;1.00;;;;;;5090317;28;20444;-57
2022/08/17 01:25:07;;;;;;;7.50;6.73;;;23.90;1.00;;;;;;5089637;28;20536;-54
2022/08/17 01:27:34;;;;;;;9.17;7.17;;;23.90;1.00;;;;;;5090859;28;20444;-55
2022/08/17 01:30:04;;;;;;;10.50;6.60;;;23.90;1.00;;;;;;5089599;28;20448;-56
2022/08/17 01:32:30;;;;;;;6.70;6.10;;;23.80;1.00;;;;;;5089714;28;20452;-55
2022/08/17 01:34:56;;;;;;;6.80;6.20;;;23.80;1.00;;;;;;5088331;28;20506;-55
2022/08/17 01:37:28;;;;;;;8.50;7.10;;;23.70;1.00;;;;;;5090375;28;20309;-55
2022/08/17 01:40:11;;;;;;;7.47;6.77;;;23.70;1.00;;;;;;5086523;28;20473;-54
2022/08/17 01:42:40;;;;;;;7.63;6.80;;;23.60;1.00;;;;;;5087508;28;20510;-56
2022/08/17 01:45:19;;;;;;;9.00;6.83;;;23.60;1.00;;;;;;5089919;28;20453;-54
2022/08/17 01:47:44;;;;;;;7.53;6.93;;;23.50;1.00;;;;;;5087832;28;20432;-54
2022/08/17 01:50:17;;;;;;;7.67;7.00;;;23.50;1.00;;;;;;5072201;28;20957;-55
2022/08/17 01:52:45;;;;;;;7.77;6.37;;;23.40;1.00;;;;;;5088615;28;20461;-55
2022/08/17 01:55:14;;;;;;;7.50;6.90;;;23.40;1.00;;;;;;5090602;28;20993;-55
2022/08/17 01:57:40;;;;;;;7.83;6.73;;;23.30;1.00;;;;;;5085702;28;20467;-54
2022/08/17 02:00:09;;;;;;;7.37;6.77;;;23.30;1.00;;;;;;5089490;28;20437;-54
2022/08/17 02:02:35;;;;;;;8.43;6.43;;;23.30;1.00;;;;;;5064940;28;20183;-55
2022/08/17 02:05:00;;;;;;;7.20;6.50;;;23.20;1.00;;;;;;5090593;28;20940;-54
2022/08/17 02:07:27;;;;;;;6.20;5.60;;;23.30;1.00;;;;;;5087534;28;20184;-54
2022/08/17 02:09:52;;;;;;;7.40;6.87;;;23.20;1.00;;;;;;5089585;28;20191;-55
2022/08/17 02:12:18;;;;;;;7.93;7.17;;;23.30;1.00;;;;;;5089570;28;20551;-55
2022/08/17 02:14:44;;;;;;;7.67;6.93;;;23.20;1.00;;;;;;5088865;28;20286;-54
2022/08/17 02:17:09;;;;;;;7.20;6.60;;;23.10;1.00;;;;;;5088763;28;20187;-54
2022/08/17 02:19:35;;;;;;;7.23;6.53;;;23.00;1.00;;;;;;5072204;28;20544;-55
2022/08/17 02:22:00;;;;;;;9.20;6.60;;;23.00;1.00;;;;;;5088866;28;20261;-54
2022/08/17 02:24:30;;;;;;;7.93;7.20;;;23.00;1.00;;;;;;5090442;28;20214;-55
2022/08/17 02:26:56;;;;;;;7.70;7.00;;;22.90;1.00;;;;;;5087445;28;20525;-55
2022/08/17 02:29:22;;;;;;;8.93;7.93;;;22.90;1.00;;;;;;5090318;28;20756;-55
2022/08/17 02:31:48;;;;;;;7.03;6.43;;;22.90;1.00;;;;;;5086668;28;20450;-54
2022/08/17 02:34:14;;;;;;;7.40;6.80;;;22.80;1.00;;;;;;5090251;28;20187;-55
2022/08/17 02:36:39;;;;;;;6.57;5.97;;;22.80;1.00;;;;;;5089092;28;20194;-54
2022/08/17 02:39:10;;;;;;;7.80;7.10;;;22.70;1.00;;;;;;5089523;28;20476;-55
2022/08/17 02:41:37;;;;;;;7.83;7.13;;;22.70;1.00;;;;;;5090372;28;20525;-55
2022/08/17 02:44:04;;;;;;;8.10;7.00;;;22.60;1.00;;;;;;5095562;28;20488;-55
2022/08/17 02:46:31;;;;;;;7.30;6.77;;;22.60;1.00;;;;;;5093985;28;20822;-55
2022/08/17 02:48:57;;;;;;;7.70;7.00;;;22.70;1.00;;;;;;5095664;28;20456;-55
2022/08/17 02:51:23;;;;;;;7.37;6.77;;;22.60;1.00;;;;;;5094899;28;20581;-55
2022/08/17 02:53:48;;;;;;;8.13;7.50;;;22.50;1.00;;;;;;5093786;28;20467;-55
2022/08/17 02:56:14;;;;;;;9.33;7.07;;;22.50;1.00;;;;;;5093246;28;20190;-55
2022/08/17 02:58:40;;;;;;;7.50;6.80;;;22.50;1.00;;;;;;5096734;28;20562;-55
2022/08/17 03:01:08;;;;;;;7.57;6.93;;;22.40;1.00;;;;;;5093795;28;20194;-54
2022/08/17 03:03:34;;;;;;;7.67;6.97;;;22.40;1.00;;;;;;5096499;28;20190;-55
2022/08/17 03:06:01;;;;;;;7.70;7.00;;;22.40;1.00;;;;;;5095091;28;20445;-54
2022/08/17 03:08:27;;;;;;;8.53;7.83;;;22.40;1.00;;;;;;5096460;28;20914;-55
2022/08/17 03:10:52;;;;;;;8.90;7.57;;;22.30;1.00;;;;;;5095194;28;20451;-54
2022/08/17 03:13:18;;;;;;;8.83;8.00;;;22.30;1.00;;;;;;5076630;28;20251;-54
2022/08/17 03:15:45;;;;;;;8.10;7.13;;;22.20;1.00;;;;;;5076475;28;20193;-55
2022/08/17 03:18:13;;;;;;;8.10;7.50;;;22.20;1.00;;;;;;5096448;28;20571;-55
2022/08/17 03:20:39;;;;;;;8.10;7.37;;;22.20;1.00;;;;;;5095873;28;20526;-55
2022/08/17 03:23:05;;;;;;;10.57;7.37;;;22.20;1.00;;;;;;5096346;28;20447;-56
2022/08/17 03:25:34;;;;;;;7.93;7.23;;;22.20;1.00;;;;;;5095302;28;20444;-55
2022/08/17 03:28:00;;;;;;;7.67;6.97;;;22.10;1.00;;;;;;5094629;28;20596;-54
2022/08/17 03:30:27;;;;;;;8.30;7.60;;;22.10;1.00;;;;;;5095206;28;20432;-55
2022/08/17 03:32:55;;;;;;;8.13;7.30;;;22.00;1.00;;;;;;5095223;28;20282;-54
2022/08/17 03:35:24;;;;;;;7.87;7.07;;;22.00;1.00;;;;;;5095478;28;20444;-55
2022/08/17 03:37:50;;;;;;;8.20;7.50;;;21.90;1.00;;;;;;5094239;28;20476;-54
2022/08/17 03:40:16;;;;;;;8.20;7.40;;;21.90;1.00;;;;;;5094609;28;20440;-54
2022/08/17 03:42:42;;;;;;;9.07;8.27;;;21.90;1.00;;;;;;5096493;28;20438;-54
2022/08/17 03:45:12;;;;;;;8.67;7.87;;;21.90;1.00;;;;;;5094396;28;20179;-55
2022/08/17 03:58:45;;;;;;;8.40;7.70;;;22.00;1.00;;;;;;5092008;28;20545;-55
2022/08/17 04:01:11;;;;;;;8.93;8.13;;;21.90;1.00;;;;;;5090035;28;20447;-54
2022/08/17 04:03:37;;;;;;;8.30;7.47;;;21.80;1.00;;;;;;5085228;28;20448;-55
2022/08/17 04:06:05;;;;;;;8.00;7.27;;;21.80;1.00;;;;;;5090217;28;20252;-54
2022/08/17 04:08:31;;;;;;;8.80;8.00;;;21.80;1.00;;;;;;5087425;28;20185;-54
2022/08/17 04:10:59;;;;;;;9.90;9.00;;;21.80;1.00;;;;;;5092257;28;20828;-54
2022/08/17 04:13:25;;;;;;;8.60;7.80;;;21.90;1.00;;;;;;5089872;28;20444;-55
2022/08/17 04:15:50;;;;;;;9.43;8.37;;;21.90;1.00;;;;;;5091610;28;20506;-54
2022/08/17 04:18:16;;;;;;;8.77;7.97;;;21.90;1.00;;;;;;5091658;28;20456;-54
2022/08/17 04:20:42;;;;;;;8.43;7.60;;;22.00;1.00;;;;;;5092249;28;20179;-55
2022/08/17 04:23:12;;;;;;;9.10;8.30;;;21.90;1.00;;;;;;5091217;28;20444;-56
2022/08/17 04:25:42;;;;;;;9.40;8.60;;;21.90;1.00;;;;;;5091122;28;20454;-54
2022/08/17 04:28:08;;;;;;;8.50;7.80;;;21.90;1.00;;;;;;5089426;28;20543;-55
2022/08/17 04:30:35;;;;;;;8.50;7.80;;;21.80;1.00;;;;;;5088704;28;20516;-55
2022/08/17 04:33:08;;;;;;;8.47;7.63;;;21.90;1.00;;;;;;5090811;28;20495;-55
2022/08/17 04:35:58;;;;;;;8.40;7.70;;;21.90;1.00;;;;;;5089645;28;20923;-55
2022/08/17 04:38:29;;;;;;;8.67;7.87;;;21.90;1.00;;;;;;5091820;28;20985;-54
2022/08/17 04:43:43;;;;;;;10.97;9.30;;;22.40;1.00;;;;;;5090004;28;20794;-56
2022/08/17 04:46:17;;;;;;;9.73;8.37;;;22.30;1.00;;;;;;5089608;28;20445;-54
2022/08/17 04:48:45;;;;;;;8.33;7.53;;;22.50;1.00;;;;;;5090779;28;20440;-54
2022/08/17 04:51:19;;;;;;;9.63;8.73;;;22.60;1.00;;;;;;5090458;28;20453;-54
2022/08/17 04:53:47;;;;;;;10.13;8.63;;;22.50;1.00;;;;;;5088602;28;20972;-54
2022/08/17 04:56:14;;;;;;;8.40;7.70;;;22.50;1.00;;;;;;5089062;28;20440;-55
2022/08/17 04:58:45;;;;;;;13.60;8.90;;;22.60;1.00;;;;;;5091334;28;20471;-55
2022/08/17 05:01:10;;;;;;;9.23;8.43;;;22.60;1.00;;;;;;5089839;28;20771;-55
2022/08/17 05:03:36;;;;;;;9.33;8.47;;;22.70;1.00;;;;;;5090818;28;20428;-56
2022/08/17 05:06:05;;;;;;;9.40;8.70;;;22.60;1.00;;;;;;5087166;28;20206;-55
2022/08/17 05:08:30;;;;;;;8.47;7.60;;;22.60;1.00;;;;;;5088797;28;20484;-55
2022/08/17 05:10:56;;;;;;;8.77;7.97;;;22.60;1.00;;;;;;5089788;28;20437;-54
2022/08/17 05:13:24;;;;;;;8.13;7.43;;;22.50;1.00;;;;;;5090978;28;20322;-53
2022/08/17 05:15:55;;;;;;;8.53;7.83;;;22.60;1.00;;;;;;5087921;28;20527;-54
2022/08/17 05:18:21;;;;;;;8.67;7.97;;;22.60;1.00;;;;;;5090708;28;20465;-55
2022/08/17 05:20:47;;;;;;;8.20;7.47;;;22.70;1.00;;;;;;5090767;28;20485;-55
2022/08/17 05:23:15;;;;;;;8.57;7.63;;;22.90;1.00;;;;;;5089323;28;21771;-56
2022/08/17 05:25:43;;;;;;;9.60;8.70;;;22.90;1.00;;;;;;5070405;28;20539;-56
2022/08/17 05:28:10;;;;;;;8.17;7.57;;;23.00;1.00;;;;;;5088228;28;20790;-54
2022/08/17 05:30:37;;;;;;;9.20;8.40;;;23.10;1.00;;;;;;5089712;28;20524;-54
2022/08/17 05:33:09;;;;;;;7.93;7.23;;;23.20;1.00;;;;;;5087721;28;20779;-56
2022/08/17 05:35:38;;;;;;;9.10;8.17;;;23.20;1.00;;;;;;5090522;28;20441;-55
2022/08/17 05:38:04;;;;;;;8.80;7.93;;;23.30;1.00;;;;;;5089305;28;20874;-55
2022/08/17 05:40:30;;;;;;;9.33;8.43;;;23.50;1.00;;;;;;5090302;28;20437;-54
2022/08/17 05:43:10;;;;;;;8.77;7.93;;;23.60;1.00;;;;;;5090477;28;20842;-55
2022/08/17 05:45:45;;;;;;;9.00;7.73;;;23.60;1.00;;;;;;5090673;28;20177;-54
2022/08/17 05:48:11;;;;;;;9.00;7.70;;;23.70;1.00;;;;;;5090124;28;20448;-54
2022/08/17 05:51:06;;;;;;;9.60;7.97;;;23.80;1.00;;;;;;5090021;28;20448;-56
2022/08/17 05:53:56;;;;;;;9.90;8.07;;;23.80;1.00;;;;;;5090634;28;20806;-55
2022/08/17 05:56:40;;;;;;;8.43;7.63;;;23.80;1.00;;;;;;5089330;28;20414;-54
2022/08/17 05:59:05;;;;;;;11.20;7.77;;;23.90;1.00;;;;;;5089679;28;20460;-56
2022/08/17 06:01:59;;;;;;;7.70;6.93;;;23.90;1.00;;;;;;5090292;28;20990;-55
2022/08/17 06:04:54;;;;;;;9.63;8.80;;;23.90;1.00;;;;;;5090400;28;20206;-54
2022/08/17 06:07:44;;;;;;;10.70;7.83;;;24.10;1.00;;;;;;5089629;28;20464;-54
2022/08/17 06:10:39;;;;;;;7.50;6.73;;;24.30;1.00;;;;;;5090294;28;20437;-56
2022/08/17 06:13:20;;;;;;;8.53;7.73;;;24.40;1.00;;;;;;5083101;28;20749;-55
2022/08/17 06:16:09;;;;;;;10.70;7.43;;;24.50;1.00;;;;;;5088265;28;20486;-55
2022/08/17 06:18:51;;;;;;;10.13;7.87;;;24.60;1.00;;;;;;5084484;28;21022;-55
2022/08/17 06:21:18;;;;;;;10.40;7.90;;;24.80;1.00;;;;;;5090353;28;20433;-56
2022/08/17 06:24:05;;;;;;;8.43;7.63;;;24.90;1.00;;;;;;5089574;28;20498;-55
2022/08/17 06:26:35;;;;;;;8.80;8.00;;;25.10;1.00;;;;;;5084950;28;20411;-54
2022/08/17 06:29:32;;;;;;;8.77;7.70;;;25.20;1.00;;;;;;5088503;28;20460;-56
2022/08/17 06:31:58;;;;;;;12.50;8.23;;;25.30;1.00;;;;;;5089619;28;20460;-56
2022/08/17 06:34:23;;;;;;;7.20;6.50;;;25.30;1.00;;;;;;5087971;28;20981;-55
2022/08/17 06:36:59;;;;;;;6.80;6.30;;;25.20;1.00;;;;;;5089690;28;20599;-57
2022/08/17 06:39:52;;;;;;;7.80;7.07;;;25.30;1.00;;;;;;5089718;28;20214;-54
2022/08/17 06:42:39;;;;;;;7.70;7.03;;;25.30;1.00;;;;;;5088661;28;20969;-56
2022/08/17 06:45:20;;;;;;;8.60;7.90;;;25.40;1.00;;;;;;5087881;28;20834;-55
2022/08/17 06:47:59;;;;;;;11.77;7.53;;;25.60;1.00;;;;;;5071481;28;20461;-56
2022/08/17 06:50:38;;;;;;;8.83;7.13;;;25.70;1.00;;;;;;5089913;28;21883;-55
2022/08/17 06:53:28;;;;;;;8.40;7.70;;;25.80;1.00;;;;;;5090192;28;20787;-54
2022/08/17 06:56:12;;;;;;;8.73;7.87;;;26.00;1.00;;;;;;5087359;28;20440;-54
2022/08/17 06:58:42;;;;;;;7.90;7.20;;;26.20;1.00;;;;;;5087841;28;20460;-56
2022/08/17 07:01:23;;;;;;;8.70;7.90;;;26.20;1.00;;;;;;5088979;28;20411;-56
2022/08/17 07:04:03;;;;;;;8.30;7.50;;;26.30;1.00;;;;;;5089721;28;20965;-57
2022/08/17 07:06:37;;;;;;;8.77;7.87;;;26.40;1.00;;;;;;5087515;28;20429;-56
2022/08/17 07:09:22;;;;;;;12.67;8.37;;;26.60;1.00;;;;;;5083341;28;20465;-56
2022/08/17 07:11:50;;;;;;;8.03;7.33;;;26.80;1.00;;;;;;5088500;28;20451;-56
2022/08/17 07:14:35;;;;;;;8.70;7.03;;;27.00;1.00;;;;;;5087834;28;20411;-57
2022/08/17 07:17:06;;;;;;;7.03;6.40;;;27.30;1.00;;;;;;5089435;28;20433;-56
2022/08/17 07:19:33;;;;;;;8.23;7.13;;;27.40;1.00;;;;;;5088912;28;20471;-55
2022/08/17 07:22:35;;;;;;;7.53;6.50;;;27.60;1.00;;;;;;5089248;28;20437;-56
2022/08/17 07:25:07;;;;;;;8.33;7.63;;;27.70;1.00;;;;;;5088858;28;20930;-56
2022/08/17 07:27:51;;;;;;;7.40;6.70;;;27.60;1.00;;;;;;5088031;28;20476;-55
2022/08/17 07:30:36;;;;;;;8.53;7.40;;;27.60;1.00;;;;;;5092814;28;20440;-55
2022/08/17 07:33:12;;;;;;;7.43;6.63;;;27.90;1.00;;;;;;5089377;28;20494;-56
2022/08/17 07:35:39;;;;;;;11.97;6.67;;;27.90;1.00;;;;;;5090487;28;20448;-55
2022/08/17 07:38:23;;;;;;;7.50;6.40;;;27.90;1.00;;;;;;5091289;28;21049;-56
2022/08/17 07:41:01;;;;;;;9.80;7.17;;;27.90;1.00;;;;;;5092719;28;20433;-55
2022/08/17 07:43:38;;;;;;;7.40;6.70;;;28.20;1.00;;;;;;5092886;28;20407;-55
2022/08/17 07:49:16;;;;;;;6.80;6.20;;;28.60;1.00;;;;;;5091402;28;20444;-55
2022/08/17 07:51:42;;;;;;;8.80;6.03;;;28.90;1.00;;;;;;5042367;28;20806;-55
2022/08/17 07:54:21;;;;;;;6.47;5.93;;;29.00;1.00;;;;;;5093163;28;20437;-56
2022/08/17 07:56:51;;;;;;;7.17;6.57;;;29.00;1.00;;;;;;5090833;28;20175;-55
2022/08/17 07:59:20;;;;;;;7.60;5.93;;;29.20;1.00;;;;;;5092737;28;20454;-56
2022/08/17 08:01:57;;;;;;;5.93;5.53;;;29.30;1.00;;;;;;5089957;28;20439;-56
2022/08/17 08:04:45;;;;;;;7.20;6.50;;;29.40;1.00;;;;;;5091196;28;20946;-54
2022/08/17 08:07:20;;;;;;;6.40;5.90;;;29.50;1.00;;;;;;5087907;28;20440;-55
2022/08/17 08:10:01;;;;;;;5.97;5.47;;;29.40;1.00;;;;;;5089707;28;20431;-56
2022/08/17 08:12:38;;;;;;;7.60;6.03;;;29.20;1.00;;;;;;5092585;28;20425;-56
2022/08/17 08:15:24;;;;;;;7.50;6.13;;;29.20;1.00;;;;;;5089571;28;20497;-56
2022/08/17 08:17:54;;;;;;;6.67;6.07;;;29.50;1.00;;;;;;5091398;28;20431;-55
2022/08/17 08:20:39;;;;;;;6.83;6.23;;;29.50;1.00;;;;;;5091472;28;20408;-56
2022/08/17 08:23:43;;;;;;;7.07;5.57;;;29.70;1.00;;;;;;5091888;28;20428;-57
2022/08/17 08:26:25;;;;;;;6.20;5.50;;;30.00;1.00;;;;;;5087818;28;20473;-56
2022/08/17 08:29:21;;;;;;;5.80;5.30;;;30.30;1.00;;;;;;5092492;28;20543;-55
2022/08/17 08:32:18;;;;;;;5.90;5.17;;;30.60;1.00;;;;;;5091997;28;20776;-56
2022/08/17 08:35:06;;;;;;;10.03;6.27;;;30.70;1.00;;;;;;5088777;28;20492;-57
2022/08/17 08:37:50;;;;;;;6.63;6.10;;;30.90;1.00;;;;;;5091170;28;20551;-56
2022/08/17 08:40:59;;;;;;;6.37;5.87;;;31.20;1.00;;;;;;5088984;28;20469;-58
2022/08/17 08:43:59;;;;;;;6.23;5.63;;;31.40;99.90;;;;;;5092104;28;20436;-56
2022/08/17 08:46:39;;;;;;;6.70;6.10;;;31.40;99.90;;;;;;5072295;28;20757;-57
2022/08/17 08:49:46;;;;;;;6.60;6.00;;;31.20;99.90;;;;;;5091855;28;20956;-56
2022/08/17 08:52:43;;;;;;;7.90;6.10;;;30.90;1.00;;;;;;5090630;28;20440;-56
2022/08/17 08:55:14;;;;;;;7.07;6.47;;;31.00;1.00;;;;;;5091819;28;20441;-56
2022/08/17 08:57:47;;;;;;;8.30;5.70;;;31.40;99.90;;;;;;5091552;28;20500;-56
2022/08/17 09:00:21;;;;;;;6.63;5.87;;;31.70;1.00;;;;;;5091713;28;20520;-56
2022/08/17 09:03:20;;;;;;;7.60;5.90;;;31.90;99.90;;;;;;5092079;28;20428;-57
2022/08/17 09:06:11;;;;;;;9.20;6.80;;;32.00;99.90;;;;;;5091535;28;20407;-56
2022/08/17 09:08:42;;;;;;;7.30;6.30;;;32.20;99.90;;;;;;5091501;28;20436;-57
2022/08/17 09:11:26;;;;;;;6.27;5.43;;;32.30;99.90;;;;;;5091327;28;20894;-56
2022/08/17 09:14:18;;;;;;;6.30;4.93;;;32.40;99.90;;;;;;5090760;28;20937;-56
2022/08/17 09:16:51;;;;;;;6.17;5.57;;;32.40;99.90;;;;;;5076431;28;20415;-56
2022/08/17 09:19:29;;;;;;;6.70;6.00;;;32.10;99.90;;;;;;5091077;28;20475;-56
2022/08/17 09:22:02;;;;;;;5.83;5.33;;;32.30;99.90;;;;;;5073255;28;20419;-55
2022/08/17 09:24:58;;;;;;;9.30;4.90;;;32.60;99.90;;;;;;5090413;28;20443;-57
2022/08/17 09:27:43;;;;;;;9.77;5.90;;;32.70;99.90;;;;;;5080903;28;20448;-55
2022/08/17 09:30:10;;;;;;;7.40;4.43;;;32.60;99.90;;;;;;5091362;28;20878;-56
2022/08/17 09:32:38;;;;;;;5.20;4.80;;;32.60;99.90;;;;;;5091344;28;20450;-57
2022/08/17 09:35:28;;;;;;;7.40;4.90;;;32.60;99.90;;;;;;5090995;28;20444;-55
2022/08/17 09:38:03;;;;;;;7.37;4.60;;;32.80;99.90;;;;;;5089620;28;21073;-57
2022/08/17 09:40:38;;;;;;;5.47;4.97;;;33.10;99.90;;;;;;5090866;28;20940;-57
2022/08/17 09:43:11;;;;;;;5.57;5.07;;;33.40;99.90;;;;;;5090858;28;20808;-56
2022/08/17 09:45:51;;;;;;;4.80;4.20;;;33.60;99.90;;;;;;5090634;28;20445;-56
2022/08/17 09:48:28;;;;;;;6.87;5.20;;;33.70;99.90;;;;;;5090535;28;20433;-56
2022/08/17 09:51:12;;;;;;;4.50;4.10;;;33.60;99.90;;;;;;5089856;28;20414;-56
2022/08/17 09:53:39;;;;;;;5.20;3.80;;;33.30;99.90;;;;;;5090727;28;20441;-57
2022/08/17 09:56:40;;;;;;;5.33;4.23;;;33.20;99.90;;;;;;5090670;28;20443;-57
2022/08/17 09:59:31;;;;;;;4.33;4.03;;;33.30;99.90;;;;;;5056587;28;20809;-56
2022/08/17 10:02:36;;;;;;;6.17;4.43;;;33.40;99.90;;;;;;5090149;28;20434;-57
2022/08/17 10:05:29;;;;;;;5.57;5.17;;;33.60;99.90;;;;;;5084876;28;20422;-56
2022/08/17 10:08:07;;;;;;;5.37;4.13;;;33.60;99.90;;;;;;5089760;28;20430;-57
2022/08/17 10:10:41;;;;;;;3.90;3.60;;;33.70;99.90;;;;;;5090291;28;20392;-56
2022/08/17 10:13:11;;;;;;;4.00;3.70;;;33.90;99.90;;;;;;5090397;28;20429;-56
2022/08/17 10:15:39;;;;;;;4.30;3.90;;;33.90;99.90;;;;;;5090071;28;20972;-56
2022/08/17 10:18:25;;;;;;;4.73;3.40;;;33.90;99.90;;;;;;5090321;28;20437;-56
2022/08/17 10:26:35;;;;;;;3.67;3.37;;;33.90;99.90;;;;;;5089341;28;20625;-57
2022/08/17 10:29:17;;;;;;;3.57;3.20;;;34.00;99.90;;;;;;5072137;28;20454;-57
2022/08/17 10:32:09;;;;;;;6.10;3.40;;;34.40;99.90;;;;;;5071556;28;20461;-56
2022/08/17 10:35:07;;;;;;;3.77;3.50;;;34.70;99.90;;;;;;5090167;28;20479;-56
2022/08/17 10:38:04;;;;;;;5.20;3.70;;;34.80;99.90;;;;;;5090089;28;20477;-55
2022/08/17 10:40:32;;;;;;;4.37;4.07;;;34.90;99.90;;;;;;5067853;28;20416;-56
2022/08/17 10:43:30;;;;;;;3.37;3.17;;;35.10;99.90;;;;;;5090142;28;20426;-57
2022/08/17 10:46:19;;;;;;;6.67;3.77;;;34.90;99.90;;;;;;5089656;28;20516;-56
2022/08/17 10:48:55;;;;;;;4.57;3.87;;;34.70;99.90;;;;;;5089750;28;20429;-57
2022/08/17 10:51:36;;;;;;;4.23;3.83;;;34.80;99.90;;;;;;5090485;28;20437;-57
2022/08/17 10:54:04;;;;;;;4.27;3.27;;;34.50;99.90;;;;;;5089257;28;20421;-57
2022/08/17 10:56:42;;;;;;;3.90;3.50;;;34.10;99.90;;;;;;5090017;28;20434;-56
2022/08/17 10:59:08;;;;;;;3.93;3.63;;;33.80;99.90;;;;;;5088248;28;20431;-56
2022/08/17 11:01:42;;;;;;;4.17;3.87;;;33.80;99.90;;;;;;5090536;28;20521;-56
2022/08/17 11:04:43;;;;;;;3.90;3.60;;;34.00;99.90;;;;;;5093280;28;20195;-55
2022/08/17 11:07:24;;;;;;;3.80;3.40;;;34.40;99.90;;;;;;5060910;28;20451;-55
2022/08/17 11:10:20;;;;;;;6.03;3.50;;;34.40;99.90;;;;;;5093932;28;20795;-56
2022/08/17 11:13:14;;;;;;;4.37;3.40;;;34.40;99.90;;;;;;5075856;28;20447;-54
2022/08/17 11:16:12;;;;;;;12.07;4.90;;;34.80;99.90;;;;;;5089183;28;20442;-57
2022/08/17 11:19:08;;;;;;;3.93;3.63;;;34.80;99.90;;;;;;5093898;28;21107;-56
2022/08/17 11:22:00;;;;;;;4.47;3.80;;;34.70;99.90;;;;;;5093378;28;20476;-56
2022/08/17 11:24:38;;;;;;;6.03;3.73;;;34.50;99.90;;;;;;5081631;28;20910;-57
2022/08/17 11:27:20;;;;;;;4.10;3.60;;;35.10;99.90;;;;;;5093516;28;20529;-57
2022/08/17 11:29:51;;;;;;;4.43;3.57;;;34.90;99.90;;;;;;5093780;28;20412;-56
2022/08/17 11:32:32;;;;;;;3.77;3.40;;;35.30;99.90;;;;;;5093209;28;20411;-57
2022/08/17 11:35:19;;;;;;;6.70;4.10;;;35.30;99.90;;;;;;5093435;28;20469;-56
2022/08/17 11:38:18;;;;;;;4.73;4.07;;;35.30;99.90;;;;;;5092893;28;20493;-56
2022/08/17 11:41:04;;;;;;;6.47;3.80;;;35.10;99.90;;;;;;5093420;28;20938;-55
2022/08/17 11:43:55;;;;;;;3.97;3.57;;;35.00;99.90;;;;;;5093306;28;20938;-57
2022/08/17 11:52:50;;;;;;;3.73;3.30;;;34.80;99.90;;;;;;5095064;28;20778;-56
2022/08/17 11:55:28;;;;;;;4.13;3.83;;;34.80;99.90;;;;;;5092706;28;20415;-55
2022/08/17 11:58:02;;;;;;;3.80;3.50;;;34.50;99.90;;;;;;5092490;28;20198;-56
2022/08/17 12:00:46;;;;;;;3.87;3.57;;;34.30;99.90;;;;;;5092254;28;20436;-58
2022/08/17 12:03:32;;;;;;;5.23;4.50;;;34.10;99.90;;;;;;5092688;28;20448;-55
2022/08/17 12:06:18;;;;;;;5.23;3.27;;;34.40;99.90;;;;;;5092822;28;20448;-57
2022/08/17 12:08:52;;;;;;;3.77;3.23;;;34.60;99.90;;;;;;5092340;28;20948;-56
2022/08/17 12:11:39;;;;;;;4.20;3.80;;;34.70;99.90;;;;;;5092727;28;20467;-56
2022/08/17 12:14:05;;;;;;;5.80;3.60;;;34.80;99.90;;;;;;5086482;28;20519;-56
2022/08/17 12:16:32;;;;;;;3.70;3.40;;;34.90;99.90;;;;;;5092709;28;20471;-55
2022/08/17 12:19:01;;;;;;;4.53;3.90;;;34.80;99.90;;;;;;5091045;28;20435;-56
2022/08/17 12:21:45;;;;;;;3.93;3.63;;;34.70;99.90;;;;;;5090965;28;20486;-56
2022/08/17 12:24:21;;;;;;;11.43;4.53;;;34.80;99.90;;;;;;5085329;28;20419;-56
2022/08/17 12:27:04;;;;;;;3.83;3.20;;;34.90;99.90;;;;;;5092007;28;20430;-55
2022/08/17 12:29:31;;;;;;;5.40;3.67;;;34.70;99.90;;;;;;5092247;28;21146;-57
2022/08/17 12:32:00;;;;;;;4.00;2.87;;;34.80;99.90;;;;;;5092423;28;20435;-56
2022/08/17 12:34:28;;;;;;;3.60;3.30;;;34.80;99.90;;;;;;5092839;28;20848;-56
2022/08/17 12:37:03;;;;;;;4.50;4.10;;;34.60;99.90;;;;;;5091876;28;20406;-57
2022/08/17 12:39:29;;;;;;;4.03;3.63;;;34.50;99.90;;;;;;5092315;28;20443;-55
2022/08/17 12:41:59;;;;;;;6.07;3.80;;;34.60;99.90;;;;;;5092024;28;20400;-56
2022/08/17 12:44:35;;;;;;;3.73;3.43;;;34.70;99.90;;;;;;5092274;28;20211;-56
2022/08/17 12:47:09;;;;;;;4.03;3.73;;;34.60;99.90;;;;;;5091778;28;20437;-56
2022/08/17 12:49:41;;;;;;;6.23;3.87;;;34.60;99.90;;;;;;5090970;28;20417;-57
2022/08/17 12:52:19;;;;;;;5.57;3.90;;;34.50;99.90;;;;;;5086704;28;20527;-57
2022/08/17 12:54:58;;;;;;;4.07;3.77;;;34.40;99.90;;;;;;5091473;28;20407;-56
2022/08/17 12:57:38;;;;;;;3.63;3.00;;;34.20;99.90;;;;;;5091924;28;20432;-57
2022/08/17 13:00:16;;;;;;;3.80;3.17;;;34.40;99.90;;;;;;5091593;28;20440;-57
2022/08/17 13:02:52;;;;;;;4.03;3.70;;;34.40;99.90;;;;;;5092113;28;20502;-58
2022/08/17 13:05:41;;;;;;;8.30;3.90;;;34.30;99.90;;;;;;5091334;28;20475;-55
2022/08/17 13:08:23;;;;;;;4.57;3.63;;;34.30;99.90;;;;;;5090331;28;20472;-56
2022/08/17 13:10:56;;;;;;;3.43;3.13;;;34.40;99.90;;;;;;5073704;28;20421;-55
2022/08/17 13:13:26;;;;;;;3.67;3.37;;;34.40;99.90;;;;;;5091511;28;20445;-56
2022/08/17 13:16:16;;;;;;;4.67;3.33;;;34.30;99.90;;;;;;5091534;28;20456;-57
2022/08/17 13:18:54;;;;;;;4.07;3.77;;;34.60;99.90;;;;;;5078761;28;20464;-57
2022/08/17 13:21:22;;;;;;;3.00;2.80;;;35.00;99.90;;;;;;5090634;28;20490;-55
2022/08/17 13:24:09;;;;;;;4.00;3.60;;;34.90;99.90;;;;;;5090938;28;20420;-55
2022/08/17 13:26:39;;;;;;;3.53;3.23;;;35.00;99.90;;;;;;5091723;28;20819;-57
2022/08/17 13:29:25;;;;;;;5.30;3.33;;;35.40;99.90;;;;;;5091308;28;20434;-56
2022/08/17 13:31:57;;;;;;;3.47;3.00;;;35.40;99.90;;;;;;5091292;28;21078;-57
2022/08/17 13:34:24;;;;;;;4.57;3.17;;;35.70;99.90;;;;;;5089684;28;20508;-57
2022/08/17 13:36:52;;;;;;;5.10;3.77;;;36.00;99.90;;;;;;5087419;28;20466;-56
2022/08/17 13:39:23;;;;;;;3.37;3.10;;;35.90;99.90;;;;;;5090948;28;20439;-56
2022/08/17 13:41:52;;;;;;;4.60;3.17;;;36.00;99.90;;;;;;5091284;28;20520;-57
2022/08/17 13:44:39;;;;;;;4.20;3.80;;;36.10;99.90;;;;;;5090323;28;20525;-55
2022/08/17 13:47:15;;;;;;;4.07;3.70;;;36.10;99.90;;;;;;5090928;28;20464;-56
2022/08/17 13:49:41;;;;;;;4.20;3.90;;;36.10;99.90;;;;;;5090998;28;20973;-56
2022/08/17 13:52:31;;;;;;;4.47;3.40;;;36.00;99.90;;;;;;5090992;28;20442;-56
2022/08/17 13:55:05;;;;;;;5.07;3.87;;;36.00;99.90;;;;;;5090288;28;20536;-56
2022/08/17 13:57:30;;;;;;;3.70;3.37;;;36.30;99.90;;;;;;5089360;28;20768;-56
2022/08/17 14:00:11;;;;;;;3.87;3.53;;;36.30;99.90;;;;;;5090579;28;20421;-57
2022/08/17 14:02:36;;;;;;;6.03;3.17;;;36.30;99.90;;;;;;5090596;28;20179;-55